CheckWX is a tool to help pilots better visualize weather data.  It is not intended as a substitute for an official pre-flight weather briefing.

09:29:43 UTC

E38 METAR
Alpine-Casparis Municipal Airport
Alpine, Texas, USA
Current

35 mins ago

KE38 200855Z AUTO 29008KT 10SM CLR 01/M09 A3000 RMK AO2 T00111092
Observed
Feb-20 @ 08:55 UTC
Wind
  • 290° at 8 KTS
Visibility
16,093 meters
Flight Rules
VFR
Cloud Levels
  • Clear skies
Temperature
C / 34°F
Dewpoint
-9°C / 16°F
Humidity
48%
Altimeter
30" Hg
Pressure
1015.92 hPa
Previous

55 mins ago

KE38 200835Z AUTO 22004KT 10SM CLR 03/M09 A3000 RMK AO2 T00281087
Observed
Feb-20 @ 08:35 UTC
Wind
  • 220° at 4 KTS
Visibility
16,093 meters
Flight Rules
VFR
Cloud Levels
  • Clear skies
Temperature
C / 37°F
Dewpoint
-9°C / 16°F
Humidity
41%
Altimeter
30" Hg
Pressure
1015.92 hPa
Previous

1 hour ago

KE38 200815Z AUTO 31005KT 10SM CLR 02/M08 A3000 RMK AO2 T00231081
Observed
Feb-20 @ 08:15 UTC
Wind
  • 310° at 5 KTS
Visibility
16,093 meters
Flight Rules
VFR
Cloud Levels
  • Clear skies
Temperature
C / 36°F
Dewpoint
-8°C / 18°F
Humidity
48%
Altimeter
30" Hg
Pressure
1015.92 hPa